Time;durP1;ratioP1;P1;durP2;ratioP2;P2;SDS_P1;SDS_P2;PMS_P1;PMS_P2;Temp;Humidity;BMP_temperature;BMP_pressure;BME280_temperature;BME280_humidity;BME280_pressure;Samples;Min_cycle;Max_cycle;Signal;HPM_P1;HPM_P2
2021/03/09 00:02:07;;;;;;;15.10;9.70;;;;;;;1.72;77.80;96318.56;5057533;28;20490;-85
2021/03/09 00:04:33;;;;;;;14.50;8.17;;;;;;;1.70;77.62;96308.38;5057059;28;20462;-86
2021/03/09 00:06:59;;;;;;;15.33;8.13;;;;;;;1.68;78.00;96321.44;5057401;28;20553;-85
2021/03/09 00:09:26;;;;;;;14.80;9.80;;;;;;;1.72;77.89;96316.63;5055790;28;20974;-86
2021/03/09 00:11:52;;;;;;;15.10;8.83;;;;;;;1.72;77.89;96310.56;5057318;28;20442;-86
2021/03/09 00:14:18;;;;;;;13.77;8.30;;;;;;;1.73;77.79;96315.41;5058113;28;20472;-87
2021/03/09 00:16:44;;;;;;;13.90;9.20;;;;;;;1.66;78.47;96317.81;5057887;28;20450;-88
2021/03/09 00:19:10;;;;;;;15.97;8.57;;;;;;;1.66;78.31;96318.53;5058127;28;20443;-87
2021/03/09 00:21:36;;;;;;;14.53;9.80;;;;;;;1.64;78.33;96305.00;5058075;28;20450;-87
2021/03/09 00:24:03;;;;;;;14.13;8.70;;;;;;;1.56;78.32;96306.69;5057660;28;20489;-88
2021/03/09 00:26:30;;;;;;;13.47;8.20;;;;;;;1.54;79.26;96319.72;5057835;28;20453;-87
2021/03/09 00:28:56;;;;;;;16.83;10.83;;;;;;;1.54;78.80;96309.81;5058284;28;20450;-87
2021/03/09 00:31:22;;;;;;;18.20;9.50;;;;;;;1.55;78.94;96307.88;5057250;28;20464;-88
2021/03/09 00:33:48;;;;;;;15.53;9.70;;;;;;;1.57;78.69;96308.13;5057498;28;20809;-87
2021/03/09 00:36:14;;;;;;;18.50;11.23;;;;;;;1.50;79.14;96296.03;5057242;28;20954;-87
2021/03/09 00:38:40;;;;;;;17.73;9.50;;;;;;;1.49;79.48;96299.91;5056503;28;20449;-87
2021/03/09 00:41:06;;;;;;;16.67;9.00;;;;;;;1.49;79.67;96294.59;5057348;28;20953;-87
2021/03/09 00:43:33;;;;;;;14.20;9.07;;;;;;;1.49;79.67;96293.84;5057539;28;20528;-88
2021/03/09 00:45:59;;;;;;;13.50;8.50;;;;;;;1.42;80.21;96289.00;5059658;28;20470;-87
2021/03/09 00:48:25;;;;;;;19.23;9.27;;;;;;;1.40;80.04;96294.09;5059978;28;20974;-86
2021/03/09 00:50:51;;;;;;;17.30;9.10;;;;;;;1.45;79.59;96285.38;5060551;28;20449;-86
2021/03/09 00:53:17;;;;;;;16.30;10.20;;;;;;;1.41;80.30;96298.91;5060241;28;20449;-85
2021/03/09 00:55:44;;;;;;;19.80;11.07;;;;;;;1.38;80.28;96297.22;5060129;28;20526;-85
2021/03/09 00:58:10;;;;;;;20.43;10.60;;;;;;;1.38;80.28;96296.50;5060911;28;20427;-85
2021/03/09 01:00:37;;;;;;;16.87;9.57;;;;;;;1.35;80.70;96295.50;5060150;28;20442;-85
2021/03/09 01:03:03;;;;;;;16.47;11.23;;;;;;;1.33;80.73;96289.22;5060134;28;20486;-86
2021/03/09 01:05:29;;;;;;;18.20;11.47;;;;;;;1.31;80.95;96294.31;5059838;28;20511;-85
2021/03/09 01:07:55;;;;;;;17.20;10.60;;;;;;;1.28;81.33;96292.59;5060212;28;20488;-84
2021/03/09 01:10:22;;;;;;;22.47;11.83;;;;;;;1.25;81.47;96285.59;5074795;28;20406;-87
2021/03/09 01:12:48;;;;;;;19.17;11.73;;;;;;;1.24;81.45;96286.78;5081310;28;20422;-85
2021/03/09 01:15:15;;;;;;;20.00;11.17;;;;;;;1.24;81.61;96289.44;5081430;28;20466;-85
2021/03/09 01:17:42;;;;;;;20.53;11.30;;;;;;;1.16;82.35;96283.16;5075356;28;20505;-85
2021/03/09 01:20:09;;;;;;;24.43;12.80;;;;;;;1.19;82.30;96279.53;5060139;28;20523;-86
2021/03/09 01:22:35;;;;;;;18.90;11.90;;;;;;;1.17;82.61;96284.59;5060304;28;20490;-87
2021/03/09 01:25:01;;;;;;;21.53;12.00;;;;;;;1.17;82.32;96280.00;5059922;28;20446;-86
2021/03/09 01:27:27;;;;;;;20.70;11.40;;;;;;;1.20;82.10;96283.63;5060458;28;20438;-86
2021/03/09 01:29:54;;;;;;;20.53;11.83;;;;;;;1.16;82.21;96277.84;5059926;28;20470;-86
2021/03/09 01:32:20;;;;;;;21.20;12.10;;;;;;;1.16;83.02;96273.25;5059863;28;20927;-85
2021/03/09 01:34:47;;;;;;;19.47;11.40;;;;;;;1.10;82.76;96274.44;5058889;28;20990;-86
2021/03/09 01:37:13;;;;;;;24.50;11.53;;;;;;;1.11;82.87;96268.66;5059416;28;20442;-86
2021/03/09 01:39:39;;;;;;;20.70;12.73;;;;;;;1.07;83.11;96268.13;5060347;28;20441;-86
2021/03/09 01:42:06;;;;;;;20.53;11.80;;;;;;;1.06;83.20;96259.47;5059089;28;20454;-86
2021/03/09 01:44:32;;;;;;;29.20;13.40;;;;;;;1.09;82.80;96255.13;5059024;28;20514;-86
2021/03/09 01:47:01;;;;;;;20.83;12.20;;;;;;;1.06;83.40;96256.09;5058708;28;20977;-86
2021/03/09 01:49:30;;;;;;;22.03;13.20;;;;;;;1.05;83.17;96250.03;5059681;28;20447;-86
2021/03/09 01:51:57;;;;;;;19.57;11.73;;;;;;;1.05;83.42;96250.03;5059715;28;20477;-86
2021/03/09 01:54:23;;;;;;;22.00;11.27;;;;;;;0.99;83.51;96246.66;5059165;28;20974;-86
2021/03/09 01:56:49;;;;;;;21.40;13.20;;;;;;;1.02;84.04;96243.03;5058674;28;20455;-86
2021/03/09 01:59:17;;;;;;;21.33;12.80;;;;;;;1.03;84.04;96241.09;5058685;28;20438;-86
2021/03/09 02:01:44;;;;;;;29.67;12.87;;;;;;;1.01;84.31;96230.94;5058684;28;20497;-86
2021/03/09 02:04:10;;;;;;;20.40;11.27;;;;;;;0.99;84.10;96233.38;5059676;28;20497;-86
2021/03/09 02:06:38;;;;;;;22.33;12.30;;;;;;;1.01;84.38;96227.56;5058757;28;20801;-86
2021/03/09 02:09:06;;;;;;;22.60;13.03;;;;;;;0.99;84.63;96229.97;5058181;28;20454;-86
2021/03/09 02:11:37;;;;;;;24.57;12.17;;;;;;;1.03;84.13;96225.88;5058563;28;20522;-85
2021/03/09 02:14:12;;;;;;;19.00;12.10;;;;;;;1.01;84.21;96228.28;5058402;28;20945;-86
2021/03/09 02:16:46;;;;;;;24.87;13.47;;;;;;;0.95;84.71;96218.84;5075470;28;20434;-88
2021/03/09 02:19:51;;;;;;;20.50;12.33;;;;;;;0.97;85.41;96213.81;5079962;28;20471;-85
2021/03/09 02:22:50;;;;;;;26.97;13.03;;;;;;;0.96;85.57;96221.03;5060338;28;20430;-85
2021/03/09 02:25:32;;;;;;;20.97;11.80;;;;;;;0.96;85.56;96213.06;5052085;28;20470;-85
2021/03/09 02:28:11;;;;;;;24.20;11.80;;;;;;;0.96;85.21;96212.34;5059122;28;20490;-85
2021/03/09 02:30:40;;;;;;;20.47;12.13;;;;;;;0.94;85.31;96220.78;5057816;28;20915;-85
2021/03/09 02:33:11;;;;;;;21.43;12.77;;;;;;;0.97;85.23;96203.19;5058492;28;20445;-88
2021/03/09 02:35:43;;;;;;;19.53;12.30;;;;;;;1.01;84.66;96212.34;5057735;28;21106;-87
2021/03/09 02:38:11;;;;;;;19.97;11.87;;;;;;;0.99;84.97;96211.38;5058143;28;20422;-87
2021/03/09 02:40:38;;;;;;;20.00;12.43;;;;;;;0.95;85.38;96206.31;5058852;28;20472;-87
2021/03/09 02:43:09;;;;;;;21.80;11.93;;;;;;;0.93;85.50;96202.69;5058360;28;20489;-87
2021/03/09 02:45:36;;;;;;;22.00;12.27;;;;;;;0.92;85.60;96199.28;5059210;28;20466;-87
2021/03/09 02:48:06;;;;;;;19.23;11.97;;;;;;;0.93;85.22;96203.41;5058363;28;20437;-87
2021/03/09 02:50:33;;;;;;;22.40;12.30;;;;;;;0.95;85.42;96200.25;5058276;28;20418;-87
2021/03/09 02:53:05;;;;;;;18.47;11.80;;;;;;;0.90;84.91;96200.97;5057143;28;20526;-87
2021/03/09 02:55:33;;;;;;;18.00;11.50;;;;;;;0.84;85.22;96206.28;5058686;28;20437;-87
2021/03/09 02:58:01;;;;;;;23.27;12.33;;;;;;;0.76;85.50;96197.31;5058650;28;20879;-86
2021/03/09 03:00:27;;;;;;;19.40;12.50;;;;;;;0.78;85.78;96197.59;5058252;28;20544;-86
2021/03/09 03:02:54;;;;;;;20.00;12.07;;;;;;;0.74;86.06;96197.06;5057980;28;20572;-87
2021/03/09 03:05:22;;;;;;;23.60;12.93;;;;;;;0.74;85.98;96189.13;5058710;28;20463;-86
2021/03/09 03:07:49;;;;;;;21.67;11.63;;;;;;;0.71;85.77;96197.31;5057505;28;20443;-87
2021/03/09 03:10:19;;;;;;;21.13;12.30;;;;;;;0.72;85.97;96188.84;5058642;28;20429;-87
2021/03/09 03:12:47;;;;;;;21.03;11.77;;;;;;;0.70;85.98;96196.56;5057892;28;20533;-86
2021/03/09 03:15:15;;;;;;;21.93;12.97;;;;;;;0.69;85.75;96195.13;5057129;28;20462;-87
2021/03/09 03:17:43;;;;;;;24.93;10.57;;;;;;;0.73;85.84;96187.66;5058149;28;20453;-85
2021/03/09 03:20:13;;;;;;;18.03;10.27;;;;;;;0.78;85.79;96189.63;5056531;28;20537;-85
2021/03/09 03:22:41;;;;;;;17.43;11.60;;;;;;;0.85;85.76;96185.75;5057168;28;20946;-85
2021/03/09 03:25:09;;;;;;;24.20;13.30;;;;;;;0.77;85.66;96185.50;5055946;28;20450;-86
2021/03/09 03:27:37;;;;;;;17.30;11.70;;;;;;;0.77;85.78;96185.50;5056801;28;20509;-85
2021/03/09 03:30:07;;;;;;;18.07;10.83;;;;;;;0.90;85.50;96188.44;5057534;28;20482;-85
2021/03/09 03:32:34;;;;;;;19.83;11.27;;;;;;;0.90;85.30;96191.09;5057101;28;20427;-85
2021/03/09 03:35:00;;;;;;;22.73;12.27;;;;;;;0.80;85.20;96189.84;5056267;28;20489;-85
2021/03/09 03:37:27;;;;;;;21.03;11.83;;;;;;;0.79;85.69;96185.75;5056814;28;20426;-85
2021/03/09 03:39:54;;;;;;;21.57;11.30;;;;;;;0.72;86.02;96188.84;5056313;28;20504;-85
2021/03/09 03:42:20;;;;;;;23.57;12.40;;;;;;;0.68;85.86;96183.06;5068984;28;20426;-86
2021/03/09 03:44:46;;;;;;;18.03;10.80;;;;;;;0.64;85.78;96179.91;5078722;28;20435;-88
2021/03/09 03:47:13;;;;;;;19.50;11.47;;;;;;;0.70;86.33;96180.66;5077418;28;20442;-87
2021/03/09 03:49:39;;;;;;;16.47;10.77;;;;;;;0.74;86.36;96180.41;5061682;28;20481;-85
2021/03/09 03:52:12;;;;;;;19.53;12.23;;;;;;;0.71;86.50;96181.38;5056964;28;20449;-85
2021/03/09 03:54:48;;;;;;;19.73;11.67;;;;;;;0.61;86.66;96183.53;5057317;28;20517;-85
2021/03/09 03:57:18;;;;;;;15.87;11.57;;;;;;;0.61;86.05;96172.16;5056899;28;20474;-85
2021/03/09 03:59:49;;;;;;;20.57;12.20;;;;;;;0.64;86.57;96177.25;5057171;28;20510;-85
2021/03/09 04:02:16;;;;;;;16.57;11.63;;;;;;;0.60;86.50;96186.63;5056876;28;20417;-86
2021/03/09 04:04:47;;;;;;;21.53;12.27;;;;;;;0.60;87.50;96184.72;5066157;28;20462;-85
2021/03/09 04:07:18;;;;;;;23.60;12.83;;;;;;;0.67;86.82;96180.88;5078709;28;20419;-85
2021/03/09 04:09:46;;;;;;;21.87;13.00;;;;;;;0.63;87.00;96175.09;5078322;28;20418;-86
2021/03/09 04:12:13;;;;;;;23.77;13.23;;;;;;;0.58;87.45;96170.47;5078498;28;20430;-85
2021/03/09 04:14:41;;;;;;;21.40;13.40;;;;;;;0.53;87.87;96171.91;5057879;28;20447;-87
2021/03/09 04:17:07;;;;;;;23.53;12.53;;;;;;;0.57;87.57;96164.44;5056129;28;20442;-85
2021/03/09 04:19:34;;;;;;;19.10;11.97;;;;;;;0.60;87.21;96165.41;5057524;28;20454;-86
2021/03/09 04:22:01;;;;;;;25.40;13.00;;;;;;;0.61;87.29;96164.22;5061942;28;20498;-86
2021/03/09 04:24:28;;;;;;;26.23;12.73;;;;;;;0.61;87.18;96159.63;5062206;28;20485;-86
2021/03/09 04:26:55;;;;;;;28.30;13.27;;;;;;;0.52;87.22;96167.81;5062640;28;20446;-87
2021/03/09 04:29:21;;;;;;;21.40;13.23;;;;;;;0.50;87.43;96160.31;5061653;28;20525;-87
2021/03/09 04:31:49;;;;;;;18.13;12.20;;;;;;;0.48;87.73;96164.66;5062899;28;20525;-86
2021/03/09 04:34:15;;;;;;;20.03;12.13;;;;;;;0.45;87.96;96170.91;5062122;28;20465;-87
2021/03/09 04:36:42;;;;;;;27.73;15.13;;;;;;;0.45;88.40;96166.34;5061902;28;20436;-85
2021/03/09 04:39:10;;;;;;;22.00;13.40;;;;;;;0.52;88.29;96170.47;5061551;28;20942;-86
2021/03/09 04:41:36;;;;;;;26.07;15.63;;;;;;;0.55;88.47;96174.81;5061823;28;20438;-84
2021/03/09 04:44:03;;;;;;;32.17;15.97;;;;;;;0.59;88.32;96170.00;5062752;28;20516;-87
2021/03/09 04:46:30;;;;;;;23.97;14.43;;;;;;;0.58;88.79;96171.19;5061957;28;20461;-87
2021/03/09 04:48:57;;;;;;;23.77;13.93;;;;;;;0.59;88.09;96180.63;5061714;28;20442;-87
2021/03/09 04:51:24;;;;;;;25.80;13.47;;;;;;;0.58;88.10;96178.44;5061187;28;20446;-86
2021/03/09 04:53:50;;;;;;;31.60;16.77;;;;;;;0.59;87.98;96170.00;5060663;28;20792;-87
2021/03/09 04:56:17;;;;;;;24.30;13.47;;;;;;;0.61;87.84;96170.25;5060361;28;20453;-85
2021/03/09 04:58:43;;;;;;;23.37;12.93;;;;;;;0.59;87.45;96167.34;5060858;28;20456;-86
2021/03/09 05:01:09;;;;;;;26.97;14.90;;;;;;;0.57;87.61;96161.78;5060607;28;20521;-86
2021/03/09 05:03:36;;;;;;;24.30;14.23;;;;;;;0.53;87.80;96172.63;5060788;28;20827;-86
2021/03/09 05:06:04;;;;;;;21.03;13.10;;;;;;;0.53;88.31;96161.31;5060517;28;20474;-87
2021/03/09 05:08:30;;;;;;;21.93;14.17;;;;;;;0.58;87.65;96167.81;5061377;28;20939;-87
2021/03/09 05:10:56;;;;;;;26.30;14.17;;;;;;;0.56;87.83;96168.31;5061292;28;20524;-88
2021/03/09 05:13:23;;;;;;;24.60;14.70;;;;;;;0.57;88.01;96166.34;5060896;28;20450;-86
2021/03/09 05:15:50;;;;;;;22.07;13.83;;;;;;;0.50;87.39;96176.22;5060479;28;20442;-86
2021/03/09 05:18:16;;;;;;;22.87;14.63;;;;;;;0.42;86.53;96172.59;5059920;28;20442;-87
2021/03/09 05:20:42;;;;;;;25.33;13.53;;;;;;;0.38;86.76;96172.09;5060665;28;20469;-86
2021/03/09 05:23:09;;;;;;;24.47;14.40;;;;;;;0.37;86.89;96175.22;5060458;28;20541;-85
2021/03/09 05:25:35;;;;;;;22.80;15.20;;;;;;;0.42;87.12;96177.91;5060579;28;20520;-85
2021/03/09 05:28:01;;;;;;;29.47;15.63;;;;;;;0.52;87.46;96181.06;5061453;28;20457;-86
2021/03/09 05:30:27;;;;;;;26.10;15.67;;;;;;;0.50;87.47;96188.81;5060966;28;20430;-88
2021/03/09 05:32:54;;;;;;;26.60;14.87;;;;;;;0.52;87.78;96189.03;5060905;28;20458;-87
2021/03/09 05:35:20;;;;;;;27.53;15.00;;;;;;;0.47;87.63;96187.09;5061345;28;20466;-88
2021/03/09 05:37:47;;;;;;;28.00;15.90;;;;;;;0.45;88.23;96186.84;5061437;28;20439;-88
2021/03/09 05:40:16;;;;;;;26.40;16.43;;;;;;;0.43;88.21;96189.25;5060672;28;20461;-88
2021/03/09 05:42:46;;;;;;;26.20;14.60;;;;;;;0.42;88.47;96185.13;5062049;28;20520;-88
2021/03/09 05:45:12;;;;;;;29.87;16.80;;;;;;;0.49;87.99;96184.69;5061628;28;21030;-88
2021/03/09 05:47:40;;;;;;;33.73;16.90;;;;;;;0.56;88.09;96184.25;5060932;28;20976;-88
2021/03/09 05:50:07;;;;;;;29.47;16.40;;;;;;;0.59;88.34;96185.22;5061887;28;20474;-88
2021/03/09 05:52:35;;;;;;;32.03;17.17;;;;;;;0.63;88.30;96186.41;5060974;28;20474;-87
2021/03/09 05:55:02;;;;;;;31.50;16.03;;;;;;;0.66;88.02;96188.09;5059743;28;20455;-84
2021/03/09 05:57:31;;;;;;;27.33;15.90;;;;;;;0.71;88.27;96184.03;5060407;28;20450;-85
2021/03/09 05:59:57;;;;;;;32.87;17.47;;;;;;;0.64;88.87;96192.44;5060942;28;20442;-85
2021/03/09 06:02:23;;;;;;;31.40;17.10;;;;;;;0.65;89.04;96192.00;5060888;28;20767;-84
2021/03/09 06:04:49;;;;;;;35.53;17.30;;;;;;;0.75;88.73;96193.19;5061112;28;20471;-86
2021/03/09 06:07:17;;;;;;;27.43;15.80;;;;;;;0.82;88.38;96197.31;5061656;28;20890;-85
2021/03/09 06:09:43;;;;;;;31.93;18.13;;;;;;;0.87;88.37;96194.72;5061503;28;20453;-85
2021/03/09 06:12:15;;;;;;;25.23;15.00;;;;;;;0.90;87.62;96188.44;5060370;28;20469;-86
2021/03/09 06:14:45;;;;;;;29.80;18.10;;;;;;;0.96;87.11;96183.13;5061339;28;20455;-85
2021/03/09 06:17:13;;;;;;;29.97;15.67;;;;;;;1.01;87.31;96191.09;5060441;28;20458;-84
2021/03/09 06:19:43;;;;;;;32.17;17.47;;;;;;;1.03;86.97;96186.03;5060428;28;20426;-87
2021/03/09 06:22:10;;;;;;;25.47;16.67;;;;;;;1.07;86.37;96196.41;5060392;28;20839;-89
2021/03/09 06:24:36;;;;;;;28.20;16.20;;;;;;;1.10;86.65;96200.06;5061602;28;20561;-88
2021/03/09 06:27:03;;;;;;;26.97;15.80;;;;;;;1.12;86.16;96202.97;5061298;28;20477;-89
2021/03/09 06:29:29;;;;;;;28.60;16.60;;;;;;;1.26;85.51;96196.69;5062031;28;20429;-89
2021/03/09 06:32:04;;;;;;;35.93;17.53;;;;;;;1.30;84.98;96194.53;5061279;28;20500;-89
2021/03/09 06:34:32;;;;;;;33.20;16.73;;;;;;;1.72;85.20;96190.91;5061076;28;20545;-87
2021/03/09 06:37:07;;;;;;;30.00;15.73;;;;;;;1.99;82.99;96198.84;5062813;28;20502;-88
2021/03/09 06:39:58;;;;;;;32.17;17.50;;;;;;;2.09;81.90;96199.31;5062906;28;20491;-88
2021/03/09 06:42:26;;;;;;;28.07;15.80;;;;;;;2.33;80.94;96199.50;5046463;28;20450;-89
2021/03/09 06:44:55;;;;;;;27.13;14.50;;;;;;;2.44;80.16;96201.41;5061018;28;20472;-88
2021/03/09 06:47:33;;;;;;;28.30;17.43;;;;;;;2.57;79.53;96204.25;5061573;28;20446;-89
2021/03/09 06:49:59;;;;;;;30.00;15.77;;;;;;;2.78;78.49;96207.31;5060995;28;20502;-90
2021/03/09 06:52:28;;;;;;;32.47;18.80;;;;;;;2.72;78.72;96207.34;5063126;28;20444;-92
2021/03/09 06:54:55;;;;;;;34.33;17.37;;;;;;;2.85;77.47;96201.50;5061677;28;20450;-85
2021/03/09 06:57:22;;;;;;;31.97;17.37;;;;;;;2.86;77.70;96206.31;5060880;28;20446;-86
2021/03/09 06:59:50;;;;;;;30.30;18.07;;;;;;;2.66;78.58;96212.69;5060580;28;20452;-86
2021/03/09 07:02:18;;;;;;;32.97;18.80;;;;;;;2.53;78.69;96207.19;5061043;28;20825;-86
2021/03/09 07:04:46;;;;;;;29.17;18.00;;;;;;;2.45;79.45;96216.16;5074115;28;20553;-87
2021/03/09 07:07:14;;;;;;;31.03;16.67;;;;;;;2.60;79.29;96217.31;5078286;28;20451;-88
2021/03/09 07:09:52;;;;;;;35.77;17.40;;;;;;;2.61;79.22;96218.03;5078444;28;20438;-86
2021/03/09 07:12:19;;;;;;;25.10;16.43;;;;;;;2.72;79.34;96222.59;5071894;28;20426;-86
2021/03/09 07:14:46;;;;;;;26.57;18.47;;;;;;;3.02;77.62;96223.44;5059863;28;20573;-86
2021/03/09 07:17:14;;;;;;;28.23;17.43;;;;;;;2.90;77.99;96225.44;5061059;28;20445;-90
2021/03/09 07:19:42;;;;;;;37.43;18.77;;;;;;;2.88;77.51;96217.19;5061109;28;20447;-89
2021/03/09 07:22:12;;;;;;;31.77;18.67;;;;;;;2.96;77.23;96228.78;5061190;28;20430;-89
2021/03/09 07:24:42;;;;;;;32.40;19.60;;;;;;;3.12;77.38;96225.31;5062034;28;20502;-87
2021/03/09 07:27:14;;;;;;;33.87;19.20;;;;;;;3.07;76.73;96233.34;5063996;28;20434;-91
2021/03/09 07:29:49;;;;;;;27.47;18.50;;;;;;;3.20;76.09;96230.84;5060470;28;20453;-88
2021/03/09 07:32:20;;;;;;;31.10;18.50;;;;;;;3.21;76.00;96229.63;5062710;28;20415;-88
2021/03/09 07:34:48;;;;;;;32.30;18.50;;;;;;;3.35;75.54;96225.19;5061457;28;20455;-89
2021/03/09 07:37:16;;;;;;;33.23;18.77;;;;;;;3.55;74.95;96236.19;5060448;28;20814;-90
2021/03/09 07:39:43;;;;;;;29.17;18.47;;;;;;;3.71;74.50;96237.28;5061623;28;20491;-90
2021/03/09 07:42:10;;;;;;;33.03;17.30;;;;;;;3.80;73.59;96239.63;5060755;28;20458;-89
2021/03/09 07:44:38;;;;;;;33.03;16.80;;;;;;;3.96;73.39;96244.13;5060705;28;20885;-91
2021/03/09 07:47:06;;;;;;;30.60;16.47;;;;;;;3.90;72.85;96238.09;5060833;28;20441;-88
2021/03/09 07:49:34;;;;;;;30.33;18.00;;;;;;;4.09;73.27;96236.25;5060924;28;20522;-94
2021/03/09 07:52:32;;;;;;;28.10;17.83;;;;;;;4.38;71.78;96239.38;5065600;28;20454;-93
2021/03/09 07:55:33;;;;;;;30.77;17.13;;;;;;;4.39;70.84;96236.19;5072310;28;20459;-93
2021/03/09 07:58:21;;;;;;;36.77;17.70;;;;;;;4.24;70.68;96252.59;5065189;28;20461;-93
2021/03/09 08:00:57;;;;;;;31.17;17.10;;;;;;;4.44;71.00;96242.72;5064361;28;20434;-89
2021/03/09 08:03:26;;;;;;;26.43;16.00;;;;;;;4.48;70.84;96243.88;5061992;28;20559;-88
2021/03/09 08:05:55;;;;;;;27.00;16.10;;;;;;;4.46;70.26;96237.59;5062411;28;20462;-88
2021/03/09 08:08:46;;;;;;;27.53;16.97;;;;;;;4.30;71.20;96241.88;5063208;28;20458;-91
2021/03/09 08:11:35;;;;;;;35.70;18.10;;;;;;;4.30;71.42;96241.88;5061594;28;20462;-90
2021/03/09 08:14:21;;;;;;;25.17;17.43;;;;;;;4.31;71.83;96244.06;5060503;28;20489;-88
2021/03/09 08:16:49;;;;;;;23.37;16.00;;;;;;;4.24;71.64;96244.59;5060266;28;20487;-89
2021/03/09 08:19:37;;;;;;;24.63;16.00;;;;;;;4.32;71.83;96242.09;5062651;28;20425;-88
2021/03/09 08:22:05;;;;;;;32.03;18.27;;;;;;;4.34;71.60;96242.31;5067162;28;20449;-94
2021/03/09 08:25:00;;;;;;;25.80;15.83;;;;;;;4.64;70.33;96244.91;5069772;28;20461;-94
2021/03/09 08:27:47;;;;;;;29.40;16.80;;;;;;;4.50;70.71;96246.03;5069378;28;20409;-93
2021/03/09 08:30:34;;;;;;;26.77;17.43;;;;;;;4.70;69.99;96242.91;5077152;28;20435;-95
2021/03/09 08:33:28;;;;;;;29.60;18.50;;;;;;;4.64;70.00;96253.66;5077277;28;20422;-94
2021/03/09 08:54:19;;;;;;;34.57;18.20;;;;;;;5.42;67.74;96246.63;5073771;28;20458;-96
2021/03/09 08:56:45;;;;;;;35.10;17.60;;;;;;;5.37;67.78;96242.78;5076098;28;20509;-89
2021/03/09 08:59:12;;;;;;;28.47;17.33;;;;;;;5.36;68.05;96238.66;5077250;28;20425;-91
2021/03/09 09:01:45;;;;;;;31.70;18.57;;;;;;;5.47;67.70;96243.13;5076759;28;20438;-89
2021/03/09 09:04:15;;;;;;;28.93;17.90;;;;;;;5.49;66.92;96246.03;5068508;28;20501;-90
2021/03/09 09:06:41;;;;;;;29.30;17.93;;;;;;;5.50;67.08;96242.13;5066387;28;20445;-90
2021/03/09 09:09:09;;;;;;;29.97;18.10;;;;;;;5.68;67.02;96238.69;5067742;28;20961;-92
2021/03/09 09:11:51;;;;;;;31.83;18.47;;;;;;;5.70;66.90;96241.59;5067894;28;20474;-93
2021/03/09 09:14:18;;;;;;;30.03;16.33;;;;;;;5.87;66.01;96236.72;5066942;28;20458;-92
2021/03/09 09:16:47;;;;;;;29.70;17.03;;;;;;;5.84;66.63;96233.09;5066556;28;20503;-90
2021/03/09 09:19:14;;;;;;;25.83;16.40;;;;;;;5.84;66.48;96227.00;5065509;28;20430;-91
2021/03/09 09:21:45;;;;;;;24.57;15.73;;;;;;;5.89;65.64;96237.66;5065354;28;20458;-90
2021/03/09 09:24:19;;;;;;;30.67;17.13;;;;;;;5.98;65.59;96233.16;5062873;28;20462;-90
2021/03/09 09:26:45;;;;;;;28.93;17.70;;;;;;;6.20;65.25;96233.47;5062518;28;20400;-87
2021/03/09 09:29:13;;;;;;;23.53;15.23;;;;;;;6.23;64.84;96237.84;5062934;28;20449;-87
2021/03/09 09:31:39;;;;;;;23.97;14.83;;;;;;;6.38;62.42;96234.63;5062827;28;20417;-86
2021/03/09 09:34:06;;;;;;;27.43;17.30;;;;;;;6.16;63.04;96235.03;5063441;28;20478;-87
2021/03/09 09:36:33;;;;;;;23.40;14.57;;;;;;;6.35;62.66;96238.34;5063995;28;20446;-87
2021/03/09 09:38:59;;;;;;;25.67;16.10;;;;;;;6.20;64.03;96233.47;5065961;28;20447;-87
2021/03/09 09:41:39;;;;;;;28.87;16.27;;;;;;;6.31;63.27;96238.66;5079970;28;20430;-87
2021/03/09 09:44:05;;;;;;;24.03;14.80;;;;;;;6.28;63.75;96238.97;5080128;28;20536;-87
2021/03/09 09:46:33;;;;;;;32.00;17.17;;;;;;;6.48;63.00;96235.69;5072569;28;20453;-88
2021/03/09 09:48:59;;;;;;;26.53;16.30;;;;;;;6.47;62.74;96234.22;5060198;28;20438;-87
2021/03/09 09:51:26;;;;;;;26.83;16.23;;;;;;;6.53;62.57;96232.16;5062363;28;20508;-87
2021/03/09 09:53:54;;;;;;;21.17;14.73;;;;;;;6.57;62.18;96243.31;5062228;28;21001;-88
2021/03/09 09:56:24;;;;;;;27.90;15.73;;;;;;;6.78;62.14;96244.13;5061826;28;20454;-88
2021/03/09 09:58:53;;;;;;;18.73;13.20;;;;;;;6.99;62.82;96244.19;5062664;28;20502;-88
2021/03/09 10:01:20;;;;;;;36.87;16.13;;;;;;;7.29;64.95;96241.16;5078190;28;20449;-89
2021/03/09 10:03:51;;;;;;;23.07;14.13;;;;;;;7.67;63.98;96241.53;5079803;28;20483;-89
2021/03/09 10:06:18;;;;;;;20.60;15.33;;;;;;;7.63;59.38;96235.75;5079763;28;20419;-87
2021/03/09 10:08:45;;;;;;;19.83;13.93;;;;;;;7.50;58.87;96236.53;5072781;28;20501;-92
2021/03/09 10:11:12;;;;;;;22.43;14.33;;;;;;;7.45;59.05;96237.38;5065090;28;20452;-90
2021/03/09 10:13:39;;;;;;;19.70;12.43;;;;;;;7.34;58.01;96235.66;5061939;28;20584;-87
2021/03/09 10:16:05;;;;;;;22.03;12.90;;;;;;;7.29;58.67;96239.19;5062031;28;20465;-88
2021/03/09 10:18:33;;;;;;;21.00;12.37;;;;;;;7.31;58.07;96236.69;5060948;28;20889;-87
2021/03/09 10:21:11;;;;;;;16.70;12.13;;;;;;;7.33;58.00;96236.19;5062766;28;20504;-88
2021/03/09 10:23:55;;;;;;;17.93;11.73;;;;;;;7.50;57.17;96239.94;5063972;28;20481;-87
2021/03/09 10:26:32;;;;;;;15.73;10.47;;;;;;;7.64;55.48;96239.88;5061772;28;20446;-88
2021/03/09 10:29:03;;;;;;;19.27;10.93;;;;;;;7.55;55.80;96239.09;5061459;28;20542;-87
2021/03/09 10:31:39;;;;;;;14.83;10.83;;;;;;;7.33;56.49;96241.56;5058671;28;20942;-88
2021/03/09 10:34:06;;;;;;;18.37;10.37;;;;;;;7.54;56.21;96237.66;5059111;28;20798;-89
2021/03/09 10:36:52;;;;;;;15.47;9.93;;;;;;;7.88;54.92;96247.63;5058877;28;20412;-88
2021/03/09 10:39:20;;;;;;;14.47;10.70;;;;;;;7.82;55.18;96241.66;5059194;28;20479;-88
2021/03/09 10:41:46;;;;;;;13.70;9.30;;;;;;;7.54;55.66;96234.97;5058452;28;20478;-88
2021/03/09 10:44:33;;;;;;;15.00;10.73;;;;;;;7.53;55.47;96235.47;5058038;28;20471;-88
2021/03/09 10:47:00;;;;;;;13.70;9.70;;;;;;;7.61;54.95;96227.50;5062417;28;20487;-89
2021/03/09 10:49:27;;;;;;;14.63;9.50;;;;;;;7.68;54.44;96226.84;5063426;28;20416;-88
2021/03/09 10:51:58;;;;;;;17.30;9.87;;;;;;;7.68;53.89;96229.53;5059610;28;20405;-88
2021/03/09 10:54:25;;;;;;;13.17;8.50;;;;;;;7.66;53.93;96230.06;5059753;28;20488;-88
2021/03/09 10:56:51;;;;;;;8.90;6.00;;;;;;;7.66;50.90;96227.38;5058770;28;20503;-88
2021/03/09 10:59:17;;;;;;;13.30;6.87;;;;;;;7.97;50.72;96231.03;5058874;28;20421;-87
2021/03/09 11:01:43;;;;;;;6.80;5.10;;;;;;;8.03;49.86;96229.66;5061508;28;20871;-92
2021/03/09 11:04:09;;;;;;;10.10;6.60;;;;;;;8.18;50.34;96228.31;5059959;28;20486;-92
2021/03/09 11:06:36;;;;;;;12.40;8.00;;;;;;;8.28;50.45;96230.03;5066249;28;20473;-93
2021/03/09 11:09:03;;;;;;;9.77;7.37;;;;;;;8.42;49.69;96231.41;5067881;28;20422;-93
2021/03/09 11:11:30;;;;;;;10.20;8.07;;;;;;;8.60;50.53;96237.78;5063459;28;20415;-88
2021/03/09 11:13:56;;;;;;;9.50;7.27;;;;;;;8.80;49.02;96238.97;5060533;28;20417;-88
2021/03/09 11:16:22;;;;;;;7.90;6.90;;;;;;;8.81;48.11;96235.72;5060428;28;20428;-89
2021/03/09 11:18:48;;;;;;;7.50;5.67;;;;;;;8.66;48.64;96234.94;5060628;28;20446;-87
2021/03/09 11:21:14;;;;;;;9.67;6.60;;;;;;;8.60;48.86;96238.50;5063274;28;20503;-91
2021/03/09 11:23:40;;;;;;;10.40;7.10;;;;;;;8.71;48.52;96228.69;5066046;28;20524;-91
2021/03/09 11:26:07;;;;;;;10.23;7.37;;;;;;;8.41;47.88;96229.97;5064708;28;20429;-89
2021/03/09 11:28:34;;;;;;;11.03;7.30;;;;;;;8.25;49.14;96228.38;5062756;28;20442;-89
2021/03/09 11:31:01;;;;;;;9.47;7.50;;;;;;;8.41;48.76;96227.28;5061058;28;20417;-90
2021/03/09 11:33:27;;;;;;;11.70;7.43;;;;;;;8.25;49.00;96223.00;5062479;28;20438;-87
2021/03/09 11:35:53;;;;;;;10.27;7.40;;;;;;;8.31;50.01;96220.19;5060304;28;20553;-88
2021/03/09 11:38:20;;;;;;;10.13;7.27;;;;;;;8.54;49.30;96229.13;5063334;28;20826;-89
2021/03/09 11:40:46;;;;;;;11.33;8.30;;;;;;;8.57;49.26;96220.75;5059313;28;20819;-90
2021/03/09 11:43:13;;;;;;;12.53;9.63;;;;;;;8.62;48.91;96224.50;5057526;28;20963;-88
2021/03/09 11:45:39;;;;;;;14.90;7.77;;;;;;;8.76;48.58;96217.78;5057189;28;20481;-89
2021/03/09 11:48:06;;;;;;;10.07;8.53;;;;;;;8.41;48.93;96216.50;5056465;28;20491;-88
2021/03/09 11:50:32;;;;;;;11.37;7.90;;;;;;;8.49;49.10;96209.19;5056295;28;20931;-87
2021/03/09 11:52:58;;;;;;;12.77;8.23;;;;;;;8.39;48.37;96210.97;5056848;28;20956;-86
2021/03/09 11:55:27;;;;;;;11.47;8.93;;;;;;;8.01;49.06;96215.31;5057805;28;20433;-87